Weather at Kraków John Paul II International Airport

Public forecast

Using degrees Celsius for public forecast. Weather courtesy of forecast.io.

Current aviation weather report (METAR) for Kraków John Paul II International Airport

Report is more than 6 hours old.

2022/11/14 15:30 (retrieved 2 years ago)

EPKK 141530Z 07005KT 3500 BR OVC003 06/05 Q1023

Aviation forecast (TAF) for Kraków John Paul II International Airport

Forecast is more than 12 hours old.

2023/02/22 18:37 (retrieved 1 year ago)

TAF EPKK 221730Z 2218/2318 34004KT 9999 BKN040 BECMG 2218/2221 08010KT BECMG 2314/2316 VRB02KT